Impacts TAF Board
For situational awareness. Not to be used for flight planning purposes.
IDs:

KMIA - Miami Intl, FL, US

Issued at 1528 UTC 20 Nov 2018
Updated at 1549 UTC 20 Nov 2018
Potential Impact None Slight Moderate High
Time1453Z 20/16Z 20/17Z 20/18Z 20/19Z 20/20Z 20/21Z 20/22Z 20/23Z 21/00Z 21/01Z 21/02Z 21/03Z 21/04Z>>
Type OBS PRVL PRVL PRVL PRVL PRVL PRVL PRVL PRVL PRVL PRVL PRVL PRVL PRVL
VIS 10 >6 >6 >6 >6 >6 >6 >6 >6 >6 >6 >6 >6 >6
CIG -- 40 50 50 50 50 50 100 100 100 100 -- -- --
Cover SCT BKN BKN BKN BKN BKN BKN BKN BKN BKN BKN SCT SCT SCT
FltCat VFR VFR VFR VFR VFR VFR VFR VFR VFR VFR VFR VFR VFR VFR
WX -- -- -- -- -- -- -- VCSH VCSH VCSH VCSH -- -- --
WDir 120 130 140 140 140 140 140 350 350 350 350 VRB VRB VRB
WSpd 3 5 8 8 8 8 8 3 3 3 3 0 0 0
WGst -- -- -- -- -- -- -- -- -- -- -- -- -- --
Raw TAF
KMIA 201528Z 2015/2118 13005KT P6SM SCT030 BKN040 BKN300
  FM201700 14008KT P6SM SCT035 BKN050 BKN300
  FM202200 35003KT P6SM VCSH SCT040 BKN100
  FM210200 00000KT P6SM SCT035


Raw METAR
KMIA 201453Z 12003KT 10SM SCT025 SCT300 27/22 A3010 RMK AO2 SLP192 T02670222 51015
KMIA 201353Z 00000KT 10SM FEW025 FEW300 26/22 A3009 RMK AO2 SLP189 T02610222
KMIA 201253Z 00000KT 10SM FEW025 FEW300 24/21 A3007 RMK AO2 SLP183 CB DSNT E MOV NE T02390206

METAR Board
Radar Display
Forecast Discussion
For situational awareness. Not to be used for flight planning purposes.